Time;durP1;ratioP1;P1;durP2;ratioP2;P2;SDS_P1;SDS_P2;PMS_P1;PMS_P2;Temp;Humidity;BMP_temperature;BMP_pressure;BME280_temperature;BME280_humidity;BME280_pressure;Samples;Min_cycle;Max_cycle;Signal;HPM_P1;HPM_P2
2022/04/04 00:01:00;;;;;;;0.80;0.80;;;0.40;69.20;;;-1.20;58.03;95075.81;5074846;28;20203;-85
2022/04/04 00:03:27;;;;;;;0.80;0.80;;;0.40;69.20;;;-1.24;58.09;95069.25;5039605;28;20196;-84
2022/04/04 00:05:55;;;;;;;0.80;0.80;;;0.40;69.30;;;-1.25;58.25;95077.09;5058281;28;20199;-84
2022/04/04 00:08:22;;;;;;;0.80;0.80;;;0.40;69.20;;;-1.27;58.18;95066.91;5058504;28;20199;-84
2022/04/04 00:10:49;;;;;;;0.90;0.90;;;0.30;69.20;;;-1.33;58.35;95065.63;5057176;28;20628;-84
2022/04/04 00:13:16;;;;;;;0.70;0.70;;;0.30;69.30;;;-1.30;58.35;95070.53;5043015;28;20585;-84
2022/04/04 00:15:44;;;;;;;0.82;0.82;;;0.30;69.30;;;-1.31;58.19;95068.09;5054080;28;20259;-84
2022/04/04 00:18:11;;;;;;;0.70;0.70;;;0.30;69.40;;;-1.34;58.56;95068.31;5054420;28;20196;-84
2022/04/04 00:20:42;;;;;;;0.70;0.70;;;0.30;69.60;;;-1.34;58.17;95065.75;5053988;28;20311;-84
2022/04/04 00:23:12;;;;;;;0.80;0.80;;;0.30;69.70;;;-1.36;58.03;95072.75;5037769;28;20199;-84
2022/04/04 00:25:41;;;;;;;0.80;0.80;;;0.20;69.40;;;-1.37;58.34;95077.06;5070599;28;20258;-83
2022/04/04 00:28:09;;;;;;;0.80;0.80;;;0.20;69.40;;;-1.46;58.24;95063.13;5065980;28;20203;-85
2022/04/04 00:30:36;;;;;;;0.70;0.70;;;0.20;69.30;;;-1.45;57.79;95072.50;5058069;28;20223;-84
2022/04/04 00:33:05;;;;;;;0.80;0.80;;;0.20;69.30;;;-1.47;57.85;95068.41;5056711;28;20756;-84
2022/04/04 00:35:33;;;;;;;0.80;0.80;;;0.20;69.30;;;-1.49;57.62;95073.66;5057608;28;20697;-84
2022/04/04 00:38:02;;;;;;;0.80;0.80;;;0.10;69.20;;;-1.57;57.74;95060.56;5073487;28;20199;-85
2022/04/04 00:40:30;;;;;;;0.70;0.70;;;0.10;69.30;;;-1.55;57.97;95070.72;5065311;28;20277;-85
2022/04/04 00:42:58;;;;;;;0.90;0.90;;;0.10;69.30;;;-1.58;58.03;95076.91;5053985;28;20203;-85
2022/04/04 00:45:25;;;;;;;0.80;0.80;;;0.10;69.40;;;-1.58;57.82;95068.38;5033977;28;20213;-84
2022/04/04 00:47:52;;;;;;;0.70;0.70;;;0.00;69.30;;;-1.70;57.95;95052.09;5017502;28;20192;-84
2022/04/04 00:50:19;;;;;;;0.80;0.80;;;0.00;69.40;;;-1.63;58.31;95066.97;5033283;28;20603;-84
2022/04/04 00:52:47;;;;;;;0.80;0.80;;;0.00;69.40;;;-1.62;58.29;95066.03;5038606;28;20219;-85
2022/04/04 00:55:14;;;;;;;0.80;0.80;;;0.00;69.60;;;-1.63;58.21;95061.00;5033483;28;20228;-85
2022/04/04 00:57:42;;;;;;;0.80;0.80;;;0.00;69.70;;;-1.65;58.37;95068.00;5050237;28;20189;-84
2022/04/04 01:00:11;;;;;;;0.80;0.80;;;-0.10;69.70;;;-1.67;58.50;95054.44;5038840;28;20250;-84
2022/04/04 01:02:41;;;;;;;0.80;0.80;;;-0.10;69.70;;;-1.68;58.92;95053.63;5053561;28;20199;-83
2022/04/04 01:05:10;;;;;;;0.70;0.70;;;0.00;70.00;;;-1.64;58.95;95059.38;5053284;28;20267;-84
2022/04/04 01:07:38;;;;;;;0.70;0.70;;;0.00;70.00;;;-1.64;58.89;95059.38;5070114;28;20196;-84
2022/04/04 01:10:08;;;;;;;0.80;0.80;;;-0.10;69.80;;;-1.70;59.00;95047.78;5052473;28;20235;-84
2022/04/04 01:12:37;;;;;;;0.70;0.70;;;0.00;70.10;;;-1.68;58.70;95056.19;5034599;28;20209;-84
2022/04/04 01:15:05;;;;;;;0.80;0.80;;;-0.10;70.00;;;-1.68;58.79;95052.81;5033620;28;20292;-83
2022/04/04 01:17:32;;;;;;;0.80;0.80;;;-0.10;70.00;;;-1.71;59.12;95059.00;5066682;28;20300;-85
2022/04/04 01:19:59;;;;;;;0.90;0.90;;;-0.10;70.00;;;-1.69;59.06;95048.59;5058405;28;20332;-84
2022/04/04 01:22:26;;;;;;;0.70;0.70;;;-0.10;70.00;;;-1.70;58.66;95052.91;5051290;28;20227;-83
2022/04/04 01:24:53;;;;;;;0.90;0.90;;;-0.10;70.00;;;-1.74;58.69;95033.50;5072633;28;20707;-84
2022/04/04 01:27:20;;;;;;;0.80;0.80;;;-0.10;70.00;;;-1.74;58.60;95038.66;5056130;28;20654;-84
2022/04/04 01:29:47;;;;;;;0.73;0.73;;;-0.10;69.90;;;-1.72;58.82;95044.50;5030592;28;20215;-84
2022/04/04 01:32:14;;;;;;;0.80;0.80;;;-0.10;70.00;;;-1.73;58.86;95035.16;5020737;28;20205;-84
2022/04/04 01:34:42;;;;;;;0.73;0.73;;;-0.20;70.00;;;-1.74;58.63;95030.13;5054136;28;20219;-84
2022/04/04 01:37:09;;;;;;;0.70;0.70;;;-0.20;70.00;;;-1.74;58.72;95033.50;5040262;28;20241;-84
2022/04/04 01:39:36;;;;;;;0.80;0.80;;;-0.20;70.00;;;-1.78;58.90;95025.19;5056091;28;20239;-84
2022/04/04 01:42:04;;;;;;;0.90;0.90;;;-0.20;70.00;;;-1.91;58.86;95008.25;5059808;28;20740;-84
2022/04/04 01:44:32;;;;;;;0.80;0.80;;;-0.20;70.10;;;-1.83;58.79;95021.31;5049093;28;20275;-84
2022/04/04 01:46:59;;;;;;;0.70;0.70;;;-0.20;70.00;;;-1.82;58.88;95026.38;5048960;28;20656;-84
2022/04/04 01:49:26;;;;;;;0.73;0.73;;;-0.20;70.10;;;-1.85;58.79;95018.88;5032517;28;20240;-84
2022/04/04 01:51:53;;;;;;;0.70;0.70;;;-0.20;70.10;;;-1.89;58.42;95008.91;5053009;28;20200;-83
2022/04/04 01:54:20;;;;;;;0.80;0.80;;;-0.20;70.00;;;-1.86;58.48;95021.56;5052665;28;20315;-84
2022/04/04 01:56:47;;;;;;;0.70;0.70;;;-0.30;70.00;;;-1.95;58.18;95003.31;5061778;28;20199;-84
2022/04/04 01:59:14;;;;;;;0.88;0.88;;;-0.30;70.00;;;-1.91;58.44;95026.22;5055786;28;20219;-84
2022/04/04 02:01:42;;;;;;;0.70;0.70;;;-0.30;70.00;;;-1.95;58.16;95023.06;5054971;28;20201;-84
2022/04/04 02:04:12;;;;;;;0.70;0.70;;;-0.30;69.90;;;-2.04;58.40;95013.44;5049333;28;20266;-84
2022/04/04 02:06:39;;;;;;;0.70;0.70;;;-0.30;69.90;;;-2.03;58.61;95022.78;5060739;28;20199;-84
2022/04/04 02:09:07;;;;;;;0.70;0.70;;;-0.30;70.10;;;-2.01;58.82;95020.94;5027023;28;20216;-84
2022/04/04 02:11:35;;;;;;;0.80;0.80;;;-0.40;70.00;;;-2.01;58.90;95018.38;5052342;28;20226;-84
2022/04/04 02:14:03;;;;;;;0.70;0.70;;;-0.40;70.20;;;-2.03;58.45;95018.47;5050779;28;20215;-85
2022/04/04 02:16:30;;;;;;;0.80;0.80;;;-0.40;70.20;;;-2.05;58.80;95015.22;5049356;28;20274;-84
2022/04/04 02:18:57;;;;;;;0.70;0.70;;;-0.50;70.00;;;-2.09;59.44;95008.63;5032462;28;20223;-84
2022/04/04 02:21:26;;;;;;;0.80;0.80;;;-0.40;70.20;;;-2.04;59.00;95019.38;5032329;28;20668;-84
2022/04/04 02:23:53;;;;;;;0.70;0.70;;;-0.40;70.20;;;-2.10;59.13;95020.69;5032299;28;20335;-83
2022/04/04 02:26:21;;;;;;;0.80;0.80;;;-0.40;70.20;;;-2.16;58.83;95003.13;5057717;28;20647;-84
2022/04/04 02:28:48;;;;;;;0.80;0.80;;;-0.40;70.30;;;-2.06;59.16;95012.72;5048816;28;20216;-84
2022/04/04 02:31:15;;;;;;;0.70;0.70;;;-0.50;70.20;;;-2.06;58.87;95023.84;5031984;28;20192;-84
2022/04/04 02:33:42;;;;;;;0.80;0.80;;;-0.50;70.30;;;-2.23;58.76;94991.66;5064884;28;20220;-84
2022/04/04 02:36:10;;;;;;;0.77;0.77;;;-0.50;70.30;;;-2.20;58.75;94990.63;5046338;28;20212;-84
2022/04/04 02:38:37;;;;;;;0.70;0.70;;;-0.50;70.20;;;-2.18;58.56;94999.84;5035544;28;20299;-83
2022/04/04 02:41:05;;;;;;;0.70;0.70;;;-0.50;70.20;;;-2.09;58.65;95006.06;5035534;28;20195;-84
2022/04/04 02:43:32;;;;;;;0.80;0.80;;;-0.50;70.10;;;-2.11;58.57;95002.81;5051980;28;20287;-84
2022/04/04 02:45:59;;;;;;;0.80;0.80;;;-0.50;70.10;;;-2.14;58.60;94996.13;5038577;28;20200;-84
2022/04/04 02:48:26;;;;;;;0.80;0.80;;;-0.50;70.20;;;-2.13;58.34;95000.31;5035450;28;20196;-84
2022/04/04 02:50:53;;;;;;;0.80;0.80;;;-0.50;70.10;;;-2.20;58.31;94994.00;5051879;28;20266;-85
2022/04/04 02:53:21;;;;;;;0.75;0.75;;;-0.50;70.10;;;-2.18;58.61;94996.47;5035438;28;20758;-84
2022/04/04 02:58:36;;;;;;;0.70;0.70;;;-0.60;70.20;;;-2.22;58.51;94982.19;5045885;28;20240;-84
2022/04/04 03:01:03;;;;;;;0.70;0.70;;;-0.50;70.20;;;-2.23;58.67;94983.94;5065204;28;20639;-84
2022/04/04 03:03:31;;;;;;;0.80;0.80;;;-0.60;70.20;;;-2.22;58.68;94989.91;5051932;28;20187;-84
2022/04/04 03:05:58;;;;;;;0.73;0.73;;;-0.60;70.20;;;-2.21;59.00;94988.97;5069664;28;20183;-84
2022/04/04 03:08:25;;;;;;;0.70;0.70;;;-0.60;70.30;;;-2.30;58.83;94978.44;5055181;28;20203;-85
2022/04/04 03:10:53;;;;;;;0.80;0.80;;;-0.60;70.40;;;-2.16;59.09;94984.31;5071799;28;20204;-85
2022/04/04 03:13:20;;;;;;;0.70;0.70;;;-0.60;70.50;;;-2.11;59.47;94985.63;5055179;28;20192;-84
2022/04/04 03:15:47;;;;;;;0.80;0.80;;;-0.60;70.70;;;-2.12;59.56;94972.91;5048469;28;20584;-84
2022/04/04 03:18:14;;;;;;;0.75;0.75;;;-0.60;70.70;;;-2.04;59.73;94980.03;5048322;28;20292;-84
2022/04/04 03:20:42;;;;;;;0.80;0.80;;;-0.50;70.80;;;-2.07;59.71;94965.66;5031955;28;20284;-84
2022/04/04 03:23:09;;;;;;;0.80;0.80;;;-0.50;70.90;;;-1.98;59.58;94982.16;5036379;28;20230;-84
2022/04/04 03:25:36;;;;;;;0.80;0.80;;;-0.50;70.80;;;-1.99;59.55;94973.63;5048264;28;20215;-84
2022/04/04 03:28:03;;;;;;;0.80;0.80;;;-0.50;70.70;;;-1.99;59.25;94977.94;5055056;28;20204;-83
2022/04/04 03:30:32;;;;;;;0.70;0.70;;;-0.50;70.70;;;-1.99;59.35;94983.06;5047235;28;20303;-84
2022/04/04 03:32:59;;;;;;;0.80;0.80;;;-0.40;70.70;;;-2.00;59.26;94979.69;5031329;28;20228;-85
2022/04/04 03:35:29;;;;;;;0.80;0.80;;;-0.40;70.70;;;-1.99;59.21;94977.94;5034875;28;20251;-84
2022/04/04 03:37:59;;;;;;;0.80;0.80;;;-0.40;70.70;;;-2.05;59.31;94971.50;5051654;28;20197;-84
2022/04/04 03:40:27;;;;;;;0.70;0.70;;;-0.50;70.60;;;-2.01;59.71;94978.06;5050973;28;20247;-84
2022/04/04 03:42:57;;;;;;;0.70;0.70;;;-0.40;70.70;;;-1.99;59.43;94977.94;5051470;28;20200;-84
2022/04/04 03:45:25;;;;;;;0.80;0.80;;;-0.50;70.70;;;-1.98;59.39;94975.28;5053273;28;20216;-84
2022/04/04 03:47:53;;;;;;;0.80;0.80;;;-0.40;70.70;;;-1.99;59.18;94971.06;5052267;28;20197;-84
2022/04/04 03:50:21;;;;;;;0.80;0.80;;;-0.40;70.70;;;-2.00;59.52;94972.00;5034983;28;20223;-83
2022/04/04 03:52:52;;;;;;;0.80;0.80;;;-0.40;70.70;;;-2.02;59.53;94973.84;5046981;28;20195;-84
2022/04/04 03:55:33;;;;;;;0.80;0.80;;;-0.40;70.70;;;-2.02;59.68;94978.97;5057339;28;20220;-83
2022/04/04 03:58:02;;;;;;;0.80;0.80;;;-0.40;70.90;;;-2.01;59.97;94978.06;5040506;28;20200;-84
2022/04/04 04:00:29;;;;;;;0.80;0.80;;;-0.40;70.90;;;-2.04;59.65;94974.91;5038496;28;20219;-84
2022/04/04 04:02:57;;;;;;;0.80;0.80;;;-0.50;70.70;;;-2.00;59.81;94974.56;5034853;28;20311;-84
2022/04/04 04:05:25;;;;;;;0.80;0.80;;;-0.50;70.80;;;-2.00;59.80;94966.84;5036151;28;20307;-85
2022/04/04 04:07:52;;;;;;;0.80;0.80;;;-0.40;70.90;;;-1.99;59.81;94968.50;5066130;28;20201;-84
2022/04/04 04:10:20;;;;;;;0.80;0.80;;;-0.40;70.90;;;-1.95;59.81;94975.03;5043573;28;20698;-84
2022/04/04 04:12:48;;;;;;;0.70;0.70;;;-0.40;70.90;;;-1.92;59.42;94971.41;5038279;28;20200;-84
2022/04/04 04:15:25;;;;;;;0.80;0.80;;;-0.40;70.90;;;-1.91;59.32;94977.38;5062603;28;20229;-84
2022/04/04 04:17:53;;;;;;;0.85;0.85;;;-0.40;70.90;;;-1.91;59.73;94969.69;5058720;28;20196;-84
2022/04/04 04:20:25;;;;;;;0.70;0.70;;;-0.40;70.90;;;-1.97;59.33;94963.22;5053951;28;20281;-85
2022/04/04 04:23:07;;;;;;;0.80;0.80;;;-0.40;70.80;;;-1.91;59.41;94967.09;5038844;28;20680;-85
2022/04/04 04:25:36;;;;;;;0.90;0.90;;;-0.30;71.00;;;-1.97;59.43;94961.47;5054006;28;20553;-84
2022/04/04 04:28:06;;;;;;;0.80;0.80;;;-0.40;70.80;;;-1.92;59.53;94968.84;5054404;28;20291;-84
2022/04/04 04:30:33;;;;;;;0.80;0.80;;;-0.40;70.80;;;-1.93;59.51;94969.78;5045647;28;20216;-83
2022/04/04 04:33:00;;;;;;;0.80;0.80;;;-0.30;70.70;;;-1.91;59.46;94967.09;5033319;28;20192;-84
2022/04/04 04:35:28;;;;;;;0.80;0.80;;;-0.40;70.70;;;-1.94;59.34;94963.81;5047266;28;20223;-84
2022/04/04 04:37:55;;;;;;;0.80;0.80;;;-0.30;70.80;;;-1.92;59.47;94960.31;5052835;28;20680;-83
2022/04/04 04:40:23;;;;;;;0.90;0.90;;;-0.40;70.70;;;-1.94;59.63;94963.81;5033275;28;20220;-85
2022/04/04 04:42:52;;;;;;;0.80;0.80;;;-0.40;70.70;;;-1.95;59.48;94963.94;5017198;28;20203;-84
2022/04/04 04:45:19;;;;;;;0.70;0.70;;;-0.40;70.60;;;-1.95;59.62;94972.47;5037800;28;20231;-84
2022/04/04 04:47:48;;;;;;;0.80;0.80;;;-0.40;70.60;;;-1.97;59.13;94964.03;5048573;28;20215;-84
2022/04/04 04:50:18;;;;;;;0.80;0.80;;;-0.40;70.70;;;-1.91;59.31;94969.69;5041835;28;20234;-84
2022/04/04 04:52:46;;;;;;;0.85;0.85;;;-0.40;70.70;;;-1.91;59.33;94967.91;5053657;28;20196;-84
2022/04/04 04:55:16;;;;;;;0.80;0.80;;;-0.40;70.70;;;-1.88;59.86;94969.44;5053189;28;20216;-84
2022/04/04 04:57:43;;;;;;;0.70;0.70;;;-0.30;70.90;;;-1.86;59.63;94959.88;5065882;28;20188;-84
2022/04/04 05:00:14;;;;;;;0.80;0.80;;;-0.30;70.90;;;-1.81;59.49;94968.03;5039421;28;20598;-84
2022/04/04 05:02:41;;;;;;;0.70;0.70;;;-0.30;71.00;;;-1.75;59.51;94964.22;5054091;28;20823;-85
2022/04/04 05:05:09;;;;;;;0.70;0.70;;;-0.30;71.00;;;-1.71;59.48;94957.88;5050126;28;20264;-84
2022/04/04 05:07:36;;;;;;;0.80;0.80;;;-0.30;70.90;;;-1.65;59.13;94958.25;5054582;28;20261;-84
2022/04/04 05:10:04;;;;;;;0.80;0.80;;;-0.30;70.90;;;-1.61;59.17;94956.28;5065929;28;20213;-83
2022/04/04 05:12:32;;;;;;;0.80;0.80;;;-0.20;70.90;;;-1.55;58.97;94960.13;5043930;28;20207;-84
2022/04/04 05:14:59;;;;;;;0.82;0.82;;;-0.20;70.90;;;-1.56;59.00;94956.75;5042787;28;20310;-83
2022/04/04 05:17:26;;;;;;;0.80;0.80;;;-0.20;70.90;;;-1.58;58.89;94944.94;5075094;28;20285;-83
2022/04/04 05:19:58;;;;;;;0.80;0.80;;;-0.10;70.80;;;-1.42;58.72;94967.75;5055104;28;20592;-84
2022/04/04 05:22:25;;;;;;;0.82;0.82;;;-0.10;70.80;;;-1.50;58.89;94945.16;5038167;28;20273;-84
2022/04/04 05:24:53;;;;;;;0.70;0.70;;;0.00;70.80;;;-1.33;58.75;94964.44;5058833;28;20219;-84
2022/04/04 05:27:20;;;;;;;0.80;0.80;;;0.00;70.70;;;-1.28;58.62;94964.94;5060303;28;20701;-84
2022/04/04 05:29:47;;;;;;;0.80;0.80;;;0.10;70.70;;;-1.22;58.38;94959.31;5054585;28;20242;-84
2022/04/04 05:32:15;;;;;;;0.80;0.80;;;0.10;70.70;;;-1.16;58.53;94969.13;5056081;28;20198;-85
2022/04/04 05:34:42;;;;;;;0.70;0.70;;;0.10;70.70;;;-1.21;58.18;94942.09;5022488;28;20256;-85
2022/04/04 05:37:09;;;;;;;0.80;0.80;;;0.20;70.70;;;-1.15;58.18;94951.91;5050739;28;20268;-85
2022/04/04 05:39:36;;;;;;;0.70;0.70;;;0.20;70.60;;;-1.02;58.28;94965.47;5063925;28;20281;-85
2022/04/04 05:42:03;;;;;;;0.80;0.80;;;0.30;70.70;;;-0.99;58.14;94959.28;5055186;28;20197;-85
2022/04/04 05:44:32;;;;;;;0.75;0.75;;;0.30;70.60;;;-0.89;57.62;94962.78;5070685;28;20234;-85
2022/04/04 05:46:59;;;;;;;0.70;0.70;;;0.40;70.60;;;-0.90;57.75;94955.19;5055662;28;20195;-85
2022/04/04 05:49:27;;;;;;;0.70;0.70;;;0.40;70.50;;;-0.79;57.80;94959.47;5052249;28;20724;-85
2022/04/04 05:51:54;;;;;;;0.70;0.70;;;0.40;70.50;;;-0.72;57.77;94958.88;5072383;28;20277;-84
2022/04/04 05:54:29;;;;;;;0.80;0.80;;;0.50;70.50;;;-0.66;57.75;94967.84;5057165;28;20218;-86
2022/04/04 05:56:56;;;;;;;0.70;0.70;;;0.50;70.50;;;-0.59;57.72;94963.06;5044297;28;20709;-85
2022/04/04 05:59:25;;;;;;;0.80;0.80;;;0.60;70.50;;;-0.53;57.68;94968.53;5052951;28;20227;-85
2022/04/04 06:01:52;;;;;;;0.80;0.80;;;0.60;70.40;;;-0.45;57.45;94967.94;5072572;28;20200;-85
2022/04/04 06:04:20;;;;;;;0.70;0.70;;;0.70;70.50;;;-0.43;57.58;94954.91;5062781;28;20698;-85
2022/04/04 06:06:47;;;;;;;0.70;0.70;;;0.70;70.50;;;-0.33;57.35;94960.94;5017691;28;20218;-87
2022/04/04 06:09:15;;;;;;;0.80;0.80;;;0.80;70.50;;;-0.37;57.29;94954.41;5050424;28;20221;-86
2022/04/04 06:11:43;;;;;;;0.70;0.70;;;0.90;70.50;;;-0.20;57.24;94966.75;5049104;28;20200;-86
2022/04/04 06:14:10;;;;;;;0.77;0.77;;;0.90;70.40;;;-0.11;57.21;94966.94;5019786;28;20239;-86
2022/04/04 06:16:37;;;;;;;0.80;0.80;;;1.00;70.30;;;-0.04;57.08;94970.66;5052515;28;20231;-87
2022/04/04 06:19:04;;;;;;;0.80;0.80;;;1.00;70.20;;;-0.04;56.87;94963.78;5052531;28;20239;-85
2022/04/04 06:21:31;;;;;;;0.90;0.90;;;1.10;70.30;;;0.07;56.79;94955.13;5054933;28;20286;-85
2022/04/04 06:23:58;;;;;;;0.80;0.80;;;1.20;70.30;;;0.09;56.60;94960.19;5037755;28;20223;-84
2022/04/04 06:26:28;;;;;;;0.70;0.70;;;1.20;70.20;;;0.13;56.81;94944.31;5055865;28;20203;-84
2022/04/04 06:28:55;;;;;;;0.80;0.80;;;1.30;70.10;;;0.32;56.61;94958.28;5069045;28;20220;-84
2022/04/04 06:31:23;;;;;;;0.70;0.70;;;1.40;70.10;;;0.39;56.48;94959.41;5061036;28;20196;-86
2022/04/04 06:33:50;;;;;;;0.80;0.80;;;1.40;69.90;;;0.45;56.48;94958.91;5043366;28;20224;-85
2022/04/04 06:36:17;;;;;;;0.70;0.70;;;1.50;70.00;;;0.35;56.22;94939.94;5068281;28;20314;-87
2022/04/04 06:38:44;;;;;;;0.70;0.70;;;1.60;70.00;;;0.53;55.86;94950.50;5037051;28;20239;-85
2022/04/04 06:41:11;;;;;;;0.70;0.70;;;1.60;70.90;;;0.68;56.28;94966.44;5067961;28;20779;-84
2022/04/04 06:43:40;;;;;;;0.70;0.70;;;1.70;70.10;;;0.75;56.43;94964.97;5063166;28;20207;-85
2022/04/04 06:46:07;;;;;;;0.70;0.70;;;1.70;70.00;;;0.83;56.39;94961.78;5060234;28;20196;-85
2022/04/04 06:48:34;;;;;;;0.70;0.70;;;1.80;70.10;;;0.93;56.32;94959.22;5052641;28;20200;-85
2022/04/04 06:51:03;;;;;;;0.70;0.70;;;1.90;70.20;;;0.86;55.97;94940.03;5026589;28;20203;-84
2022/04/04 06:53:30;;;;;;;0.80;0.80;;;1.90;70.20;;;1.08;55.95;94951.91;5046093;28;20199;-85
2022/04/04 06:55:58;;;;;;;0.80;0.80;;;2.00;70.30;;;1.15;55.82;94959.94;5051811;28;20223;-85
2022/04/04 06:58:26;;;;;;;0.90;0.90;;;2.10;70.30;;;1.22;56.03;94956.72;5035438;28;20208;-86
2022/04/04 07:00:53;;;;;;;0.70;0.70;;;2.10;70.30;;;1.15;55.72;94937.53;5042167;28;20705;-87
2022/04/04 07:03:21;;;;;;;0.80;0.80;;;2.20;70.30;;;1.28;56.04;94945.00;5055039;28;20206;-86
2022/04/04 07:05:49;;;;;;;0.70;0.70;;;2.30;70.50;;;1.49;55.52;94964.75;5068538;28;20196;-86
2022/04/04 07:08:16;;;;;;;0.80;0.80;;;2.30;70.10;;;1.58;55.71;94957.00;5051569;28;20200;-85
2022/04/04 07:10:43;;;;;;;0.70;0.70;;;2.40;70.10;;;1.66;55.35;94958.94;5048151;28;20224;-86
2022/04/04 07:13:11;;;;;;;0.70;0.70;;;2.50;70.00;;;1.73;55.29;94965.19;5047511;28;20191;-86
2022/04/04 07:15:39;;;;;;;0.70;0.70;;;2.60;70.00;;;1.77;55.42;94950.22;5055005;28;20642;-85
2022/04/04 07:18:06;;;;;;;0.70;0.70;;;2.60;69.80;;;1.89;55.27;94958.66;5050172;28;20207;-86
2022/04/04 07:20:34;;;;;;;0.82;0.82;;;2.70;69.70;;;1.99;54.64;94966.41;5053801;28;20713;-86
2022/04/04 07:23:01;;;;;;;0.80;0.80;;;2.80;69.60;;;2.06;54.05;94972.66;5055741;28;20219;-85
2022/04/04 07:25:28;;;;;;;0.70;0.70;;;2.90;69.40;;;2.15;53.99;94960.66;5053386;28;20411;-86
2022/04/04 07:27:55;;;;;;;0.70;0.70;;;3.00;69.80;;;2.24;53.77;94962.44;5052258;28;20618;-85
2022/04/04 07:30:23;;;;;;;0.70;0.70;;;3.00;69.10;;;2.26;53.24;94942.41;5061880;28;20288;-85
2022/04/04 07:32:51;;;;;;;0.80;0.80;;;3.10;68.90;;;2.30;53.45;94940.34;5041966;28;20283;-85
2022/04/04 07:35:20;;;;;;;0.70;0.70;;;3.20;68.90;;;2.44;52.29;94945.09;5058870;28;20215;-85
2022/04/04 07:37:50;;;;;;;0.70;0.70;;;3.20;68.60;;;2.53;52.34;94946.81;5073561;28;20255;-85
2022/04/04 07:40:19;;;;;;;0.70;0.70;;;3.30;68.20;;;2.60;52.67;94946.25;5054708;28;20273;-84
2022/04/04 07:42:47;;;;;;;0.70;0.70;;;3.40;68.30;;;2.56;50.99;94931.03;5046575;28;20284;-85
2022/04/04 07:45:16;;;;;;;0.80;0.80;;;3.50;67.50;;;2.60;51.00;94917.78;5033649;28;20262;-84
2022/04/04 07:47:46;;;;;;;0.80;0.80;;;3.60;67.60;;;2.78;51.83;94929.00;5069298;28;20689;-84
2022/04/04 07:50:14;;;;;;;0.80;0.80;;;3.60;67.90;;;2.90;51.43;94941.78;5035956;28;20712;-85
2022/04/04 07:52:42;;;;;;;0.80;0.80;;;3.70;67.70;;;2.99;52.11;94936.56;5038373;28;20207;-86
2022/04/04 07:55:10;;;;;;;0.73;0.73;;;3.70;67.80;;;3.08;51.15;94932.28;5020975;28;20310;-86
2022/04/04 07:57:38;;;;;;;0.77;0.77;;;3.80;67.60;;;3.15;51.23;94927.31;5071314;28;20234;-84
2022/04/04 08:00:09;;;;;;;0.85;0.85;;;3.90;67.60;;;3.25;51.12;94932.44;5052555;28;20223;-84
2022/04/04 08:02:38;;;;;;;0.80;0.80;;;4.00;67.60;;;3.32;50.74;94941.25;5074491;28;20662;-84
2022/04/04 08:05:07;;;;;;;0.80;0.80;;;4.10;67.20;;;3.37;50.57;94931.28;5053414;28;20224;-84
2022/04/04 08:07:36;;;;;;;0.70;0.70;;;4.10;67.20;;;3.44;49.99;94929.75;5058631;28;20195;-84
2022/04/04 08:10:04;;;;;;;0.70;0.70;;;4.20;66.80;;;3.48;50.10;94928.47;5069018;28;21521;-84
2022/04/04 08:12:31;;;;;;;0.80;0.80;;;4.30;66.60;;;3.52;49.02;94922.03;5035020;28;20227;-84
2022/04/04 08:14:59;;;;;;;0.75;0.75;;;4.30;66.10;;;3.58;49.23;94925.00;5048382;28;20217;-83
2022/04/04 08:17:26;;;;;;;0.80;0.80;;;4.40;66.40;;;3.50;49.07;94892.84;5046497;28;20586;-84
2022/04/04 08:19:53;;;;;;;0.80;0.80;;;4.40;66.20;;;3.67;48.44;94908.53;5037852;28;20697;-84
2022/04/04 08:22:22;;;;;;;0.70;0.70;;;4.50;65.80;;;3.76;49.11;94907.66;5052707;28;20303;-83
2022/04/04 08:24:50;;;;;;;0.70;0.70;;;4.50;66.00;;;3.84;49.18;94910.31;5052978;28;20223;-83
2022/04/04 08:27:17;;;;;;;0.80;0.80;;;4.60;65.80;;;3.91;49.05;94907.13;5048774;28;20248;-83
2022/04/04 08:29:44;;;;;;;0.80;0.80;;;4.70;65.90;;;3.97;48.40;94909.13;5048806;28;20398;-83
2022/04/04 08:32:12;;;;;;;0.70;0.70;;;4.70;65.50;;;3.99;47.60;94896.78;5050035;28;20200;-83
2022/04/04 08:34:39;;;;;;;0.70;0.70;;;4.80;65.10;;;3.91;47.86;94884.56;5031570;28;20947;-83
2022/04/04 08:37:07;;;;;;;0.80;0.80;;;4.80;65.40;;;4.08;48.59;94897.69;5049898;28;20228;-83
2022/04/04 08:39:34;;;;;;;0.70;0.70;;;4.80;65.60;;;4.12;49.08;94894.59;5033013;28;20247;-83
2022/04/04 08:42:02;;;;;;;0.70;0.70;;;4.90;65.90;;;4.20;48.56;94887.84;5032890;28;20192;-83
2022/04/04 08:44:30;;;;;;;0.70;0.70;;;4.90;65.60;;;4.27;47.33;94894.06;5017965;28;20247;-84
2022/04/04 08:46:59;;;;;;;0.70;0.70;;;5.00;65.30;;;4.33;47.11;94893.44;5055936;28;20659;-84
2022/04/04 08:49:27;;;;;;;0.70;0.70;;;5.10;65.00;;;4.37;47.62;94888.75;5015504;28;21655;-84
2022/04/04 08:51:54;;;;;;;0.80;0.80;;;5.10;65.10;;;4.41;46.47;94898.69;5048751;28;20666;-83
2022/04/04 08:54:21;;;;;;;0.70;0.70;;;5.20;64.80;;;4.49;47.27;94892.69;5066944;28;20298;-85
2022/04/04 08:56:48;;;;;;;0.70;0.70;;;5.20;64.70;;;4.58;47.52;94899.59;5046062;28;20387;-84
2022/04/04 08:59:16;;;;;;;0.70;0.70;;;5.30;65.00;;;4.67;46.05;94895.22;5057827;28;20349;-84
2022/04/04 09:01:43;;;;;;;0.70;0.70;;;5.30;64.10;;;4.73;46.60;94894.59;5062931;28;20238;-83
2022/04/04 09:04:10;;;;;;;0.80;0.80;;;5.40;64.40;;;4.80;46.34;94885.22;5036284;28;20219;-83
2022/04/04 09:06:56;;;;;;;0.70;0.70;;;5.50;64.20;;;4.83;44.09;94891.09;5068849;28;20294;-84
2022/04/04 09:09:43;;;;;;;0.80;0.80;;;5.50;63.50;;;4.86;45.63;94882.97;5053113;28;20227;-84
2022/04/04 09:12:13;;;;;;;0.80;0.80;;;5.60;63.40;;;4.89;45.65;94873.06;5078413;28;20276;-85
2022/04/04 09:14:56;;;;;;;0.70;0.70;;;5.60;63.40;;;4.99;46.19;94872.94;5053052;28;20283;-84
2022/04/04 09:17:30;;;;;;;0.80;0.80;;;5.60;63.70;;;5.10;47.16;94867.47;5051885;28;20227;-85
2022/04/04 09:19:58;;;;;;;0.80;0.80;;;5.70;64.20;;;5.21;46.38;94863.75;5050344;28;20263;-84
2022/04/04 09:22:26;;;;;;;0.70;0.70;;;5.80;64.30;;;5.31;46.70;94858.41;5042807;28;20200;-84
2022/04/04 09:25:02;;;;;;;0.70;0.70;;;5.80;64.40;;;5.38;47.19;94846.38;5032995;28;20235;-84
2022/04/04 09:27:32;;;;;;;0.70;0.70;;;5.90;64.30;;;5.43;46.14;94838.91;5053413;28;20196;-84
2022/04/04 09:30:03;;;;;;;0.80;0.80;;;6.00;64.00;;;5.37;45.52;94825.72;5050015;28;20228;-84
2022/04/04 09:32:46;;;;;;;0.70;0.70;;;6.00;63.80;;;5.49;45.94;94839.22;5038869;28;20196;-84
2022/04/04 09:35:18;;;;;;;0.70;0.70;;;6.10;63.40;;;5.49;44.75;94834.03;5069214;28;20220;-84
2022/04/04 09:37:50;;;;;;;0.68;0.68;;;6.10;63.00;;;5.50;44.32;94828.66;5068952;28;20220;-84
2022/04/04 09:40:22;;;;;;;0.70;0.70;;;6.10;62.70;;;5.54;45.26;94831.75;5037977;28;20729;-83
2022/04/04 09:42:52;;;;;;;0.80;0.80;;;6.20;63.10;;;5.57;45.03;94810.63;5052814;28;20208;-84
2022/04/04 09:45:24;;;;;;;0.73;0.73;;;6.20;63.50;;;5.56;43.70;94837.59;5069720;28;20228;-84
2022/04/04 09:48:00;;;;;;;0.68;0.68;;;6.20;62.40;;;5.49;43.80;94814.00;5068717;28;20220;-84
2022/04/04 09:50:46;;;;;;;0.70;0.70;;;6.30;62.50;;;5.43;43.78;94818.09;5059274;28;20211;-84
2022/04/04 09:53:29;;;;;;;0.70;0.70;;;6.30;61.70;;;5.41;43.39;94814.03;5048682;28;20266;-84
2022/04/04 09:56:00;;;;;;;0.80;0.80;;;6.20;61.30;;;5.38;42.44;94817.78;5048906;28;20196;-84
2022/04/04 09:58:30;;;;;;;0.70;0.70;;;6.20;61.10;;;5.28;42.71;94796.28;5066641;28;20232;-85
2022/04/04 10:00:59;;;;;;;0.60;0.60;;;6.20;61.10;;;5.36;42.12;94804.13;5026515;28;20274;-83
2022/04/04 10:03:30;;;;;;;0.60;0.60;;;6.20;61.00;;;5.38;43.61;94790.94;5052274;28;20192;-84
2022/04/04 10:06:05;;;;;;;0.70;0.70;;;6.20;61.70;;;5.41;43.69;94778.41;5035557;28;20240;-85
2022/04/04 10:08:35;;;;;;;0.80;0.80;;;6.20;61.50;;;5.52;43.76;94787.69;5080305;28;20203;-84
2022/04/04 10:11:04;;;;;;;0.70;0.70;;;6.20;62.10;;;5.56;42.69;94775.16;5068897;28;20196;-84
2022/04/04 10:13:31;;;;;;;0.70;0.70;;;6.30;61.80;;;5.61;43.72;94778.09;5035975;28;20223;-84
2022/04/04 10:16:00;;;;;;;0.60;0.60;;;6.30;62.00;;;5.67;43.85;94777.41;5036129;28;20211;-85
2022/04/04 10:18:29;;;;;;;0.60;0.60;;;6.30;62.20;;;5.60;44.29;94755.63;5068510;28;20278;-84
2022/04/04 10:20:57;;;;;;;0.70;0.70;;;6.40;62.40;;;5.70;43.59;94768.47;5051145;28;20613;-84
2022/04/04 10:23:27;;;;;;;0.70;0.70;;;6.40;61.90;;;5.80;43.43;94769.13;5049802;28;20291;-84
2022/04/04 10:25:58;;;;;;;0.80;0.80;;;6.50;61.80;;;5.88;43.85;94768.28;5049197;28;20208;-85
2022/04/04 10:28:38;;;;;;;0.80;0.80;;;6.50;61.90;;;5.84;42.68;94746.97;5049535;28;20203;-85
2022/04/04 10:31:28;;;;;;;0.65;0.65;;;6.50;61.20;;;5.76;43.61;94745.22;5047379;28;20258;-84
2022/04/04 10:34:10;;;;;;;0.60;0.60;;;6.60;61.50;;;5.68;43.26;94731.41;5033716;28;20698;-85